<?xml version="1.0" encoding="UTF-8" standalone="no" ?>
<gpx xmlns="http://www.topografix.com/GPX/1/1" xmlns:xsi="http://www.w3.org/2001/XMLSchema-instance" xsi:schemaLocation="http://www.topografix.com/GPX/1/1 http://www.topografix.com/GPX/1/1/gpx.xsd" version="1.1" creator="VisuGPX - https://www.visugpx.com">
  <metadata>
    <name>Conflans Ste Honorine - Poissy</name>
  </metadata>
  <trk>
    <name><![CDATA[15728329-Conflans Ste Honorine - Poissy]]></name>
    <trkseg>
      <trkpt lat="48.99677" lon="2.0989">
        <ele>46</ele>
        <time>2022-10-22T12:12:27Z</time>
      </trkpt>
      <trkpt lat="48.99665" lon="2.09847">
        <ele>45</ele>
        <time>2022-10-22T12:13:08Z</time>
      </trkpt>
      <trkpt lat="48.99655" lon="2.09821">
        <ele>45</ele>
        <time>2022-10-22T12:13:34Z</time>
      </trkpt>
      <trkpt lat="48.99649" lon="2.09811">
        <ele>45</ele>
        <time>2022-10-22T12:13:46Z</time>
      </trkpt>
      <trkpt lat="48.99643" lon="2.09799">
        <ele>45</ele>
        <time>2022-10-22T12:13:59Z</time>
      </trkpt>
      <trkpt lat="48.99633" lon="2.09763">
        <ele>45</ele>
        <time>2022-10-22T12:14:34Z</time>
      </trkpt>
      <trkpt lat="48.99625" lon="2.09737">
        <ele>45</ele>
        <time>2022-10-22T12:14:59Z</time>
      </trkpt>
      <trkpt lat="48.99624" lon="2.09734">
        <ele>45</ele>
        <time>2022-10-22T12:15:02Z</time>
      </trkpt>
      <trkpt lat="48.99607" lon="2.09675">
        <ele>44</ele>
        <time>2022-10-22T12:15:58Z</time>
      </trkpt>
      <trkpt lat="48.99583" lon="2.096">
        <ele>43</ele>
        <time>2022-10-22T12:17:11Z</time>
      </trkpt>
      <trkpt lat="48.99565" lon="2.09539">
        <ele>40</ele>
        <time>2022-10-22T12:18:10Z</time>
      </trkpt>
      <trkpt lat="48.9956" lon="2.09524">
        <ele>39</ele>
        <time>2022-10-22T12:18:24Z</time>
      </trkpt>
      <trkpt lat="48.99555" lon="2.09512">
        <ele>39</ele>
        <time>2022-10-22T12:18:37Z</time>
      </trkpt>
      <trkpt lat="48.99546" lon="2.09486">
        <ele>38</ele>
        <time>2022-10-22T12:19:03Z</time>
      </trkpt>
      <trkpt lat="48.99545" lon="2.09487">
        <ele>38</ele>
        <time>2022-10-22T12:19:04Z</time>
      </trkpt>
      <trkpt lat="48.99523" lon="2.09505">
        <ele>35</ele>
        <time>2022-10-22T12:19:38Z</time>
      </trkpt>
      <trkpt lat="48.9944" lon="2.09595">
        <ele>33</ele>
        <time>2022-10-22T12:21:54Z</time>
      </trkpt>
      <trkpt lat="48.9943" lon="2.09597">
        <ele>32</ele>
        <time>2022-10-22T12:22:07Z</time>
      </trkpt>
      <trkpt lat="48.9943" lon="2.09599">
        <ele>32</ele>
        <time>2022-10-22T12:22:09Z</time>
      </trkpt>
      <trkpt lat="48.99431" lon="2.09607">
        <ele>33</ele>
        <time>2022-10-22T12:22:16Z</time>
      </trkpt>
      <trkpt lat="48.99431" lon="2.09606">
        <ele>33</ele>
        <time>2022-10-22T12:22:17Z</time>
      </trkpt>
      <trkpt lat="48.99419" lon="2.09619">
        <ele>33</ele>
        <time>2022-10-22T12:22:36Z</time>
      </trkpt>
      <trkpt lat="48.994" lon="2.0964">
        <ele>36</ele>
        <time>2022-10-22T12:23:08Z</time>
      </trkpt>
      <trkpt lat="48.99395" lon="2.09628">
        <ele>36</ele>
        <time>2022-10-22T12:23:20Z</time>
      </trkpt>
      <trkpt lat="48.99394" lon="2.09628">
        <ele>36</ele>
        <time>2022-10-22T12:23:21Z</time>
      </trkpt>
      <trkpt lat="48.99381" lon="2.0964">
        <ele>39</ele>
        <time>2022-10-22T12:23:42Z</time>
      </trkpt>
      <trkpt lat="48.99379" lon="2.09642">
        <ele>39</ele>
        <time>2022-10-22T12:23:45Z</time>
      </trkpt>
      <trkpt lat="48.99348" lon="2.09635">
        <ele>42</ele>
        <time>2022-10-22T12:24:27Z</time>
      </trkpt>
      <trkpt lat="48.9934" lon="2.0964">
        <ele>44</ele>
        <time>2022-10-22T12:24:38Z</time>
      </trkpt>
      <trkpt lat="48.9934" lon="2.09639">
        <ele>44</ele>
        <time>2022-10-22T12:24:39Z</time>
      </trkpt>
      <trkpt lat="48.99332" lon="2.09614">
        <ele>43</ele>
        <time>2022-10-22T12:25:04Z</time>
      </trkpt>
      <trkpt lat="48.99324" lon="2.09592">
        <ele>42</ele>
        <time>2022-10-22T12:25:26Z</time>
      </trkpt>
      <trkpt lat="48.99319" lon="2.0959">
        <ele>42</ele>
        <time>2022-10-22T12:25:32Z</time>
      </trkpt>
      <trkpt lat="48.99265" lon="2.09624">
        <ele>44</ele>
        <time>2022-10-22T12:26:50Z</time>
      </trkpt>
      <trkpt lat="48.99265" lon="2.09623">
        <ele>44</ele>
        <time>2022-10-22T12:26:51Z</time>
      </trkpt>
      <trkpt lat="48.99257" lon="2.09596">
        <ele>43</ele>
        <time>2022-10-22T12:27:17Z</time>
      </trkpt>
      <trkpt lat="48.99257" lon="2.09594">
        <ele>43</ele>
        <time>2022-10-22T12:27:19Z</time>
      </trkpt>
      <trkpt lat="48.99275" lon="2.09577">
        <ele>42</ele>
        <time>2022-10-22T12:27:47Z</time>
      </trkpt>
      <trkpt lat="48.99267" lon="2.09549">
        <ele>41</ele>
        <time>2022-10-22T12:28:14Z</time>
      </trkpt>
      <trkpt lat="48.99266" lon="2.09549">
        <ele>41</ele>
        <time>2022-10-22T12:28:15Z</time>
      </trkpt>
      <trkpt lat="48.99241" lon="2.09562">
        <ele>41</ele>
        <time>2022-10-22T12:28:51Z</time>
      </trkpt>
      <trkpt lat="48.99223" lon="2.0957">
        <ele>37</ele>
        <time>2022-10-22T12:29:16Z</time>
      </trkpt>
      <trkpt lat="48.99223" lon="2.09569">
        <ele>37</ele>
        <time>2022-10-22T12:29:16Z</time>
      </trkpt>
      <trkpt lat="48.99217" lon="2.09538">
        <ele>36</ele>
        <time>2022-10-22T12:29:45Z</time>
      </trkpt>
      <trkpt lat="48.9922" lon="2.09537">
        <ele>37</ele>
        <time>2022-10-22T12:29:49Z</time>
      </trkpt>
      <trkpt lat="48.99217" lon="2.09538">
        <ele>36</ele>
        <time>2022-10-22T12:29:53Z</time>
      </trkpt>
      <trkpt lat="48.99212" lon="2.09524">
        <ele>35</ele>
        <time>2022-10-22T12:30:07Z</time>
      </trkpt>
      <trkpt lat="48.99207" lon="2.09511">
        <ele>35</ele>
        <time>2022-10-22T12:30:20Z</time>
      </trkpt>
      <trkpt lat="48.99205" lon="2.09502">
        <ele>35</ele>
        <time>2022-10-22T12:30:28Z</time>
      </trkpt>
      <trkpt lat="48.99201" lon="2.09475">
        <ele>33</ele>
        <time>2022-10-22T12:30:53Z</time>
      </trkpt>
      <trkpt lat="48.99198" lon="2.09445">
        <ele>32</ele>
        <time>2022-10-22T12:31:19Z</time>
      </trkpt>
      <trkpt lat="48.99197" lon="2.09439">
        <ele>32</ele>
        <time>2022-10-22T12:31:25Z</time>
      </trkpt>
      <trkpt lat="48.99202" lon="2.09428">
        <ele>32</ele>
        <time>2022-10-22T12:31:36Z</time>
      </trkpt>
      <trkpt lat="48.99202" lon="2.09427">
        <ele>32</ele>
        <time>2022-10-22T12:31:37Z</time>
      </trkpt>
      <trkpt lat="48.99193" lon="2.09377">
        <ele>31</ele>
        <time>2022-10-22T12:32:23Z</time>
      </trkpt>
      <trkpt lat="48.99192" lon="2.09348">
        <ele>31</ele>
        <time>2022-10-22T12:32:48Z</time>
      </trkpt>
      <trkpt lat="48.99188" lon="2.09306">
        <ele>30</ele>
        <time>2022-10-22T12:33:25Z</time>
      </trkpt>
      <trkpt lat="48.99185" lon="2.09279">
        <ele>29</ele>
        <time>2022-10-22T12:33:49Z</time>
      </trkpt>
      <trkpt lat="48.99181" lon="2.09261">
        <ele>29</ele>
        <time>2022-10-22T12:34:06Z</time>
      </trkpt>
      <trkpt lat="48.9918" lon="2.09234">
        <ele>28</ele>
        <time>2022-10-22T12:34:30Z</time>
      </trkpt>
      <trkpt lat="48.99175" lon="2.09213">
        <ele>27</ele>
        <time>2022-10-22T12:34:49Z</time>
      </trkpt>
      <trkpt lat="48.99175" lon="2.09207">
        <ele>27</ele>
        <time>2022-10-22T12:34:54Z</time>
      </trkpt>
      <trkpt lat="48.99176" lon="2.09204">
        <ele>27</ele>
        <time>2022-10-22T12:34:57Z</time>
      </trkpt>
      <trkpt lat="48.99175" lon="2.09207">
        <ele>27</ele>
        <time>2022-10-22T12:35:00Z</time>
      </trkpt>
      <trkpt lat="48.99171" lon="2.09187">
        <ele>26</ele>
        <time>2022-10-22T12:35:19Z</time>
      </trkpt>
      <trkpt lat="48.99171" lon="2.09186">
        <ele>26</ele>
        <time>2022-10-22T12:35:19Z</time>
      </trkpt>
      <trkpt lat="48.99172" lon="2.09182">
        <ele>26</ele>
        <time>2022-10-22T12:35:23Z</time>
      </trkpt>
      <trkpt lat="48.99183" lon="2.09162">
        <ele>26</ele>
        <time>2022-10-22T12:35:46Z</time>
      </trkpt>
      <trkpt lat="48.99183" lon="2.09161">
        <ele>26</ele>
        <time>2022-10-22T12:35:47Z</time>
      </trkpt>
      <trkpt lat="48.99169" lon="2.09122">
        <ele>25</ele>
        <time>2022-10-22T12:36:26Z</time>
      </trkpt>
      <trkpt lat="48.99164" lon="2.09113">
        <ele>24</ele>
        <time>2022-10-22T12:36:36Z</time>
      </trkpt>
      <trkpt lat="48.99158" lon="2.09104">
        <ele>24</ele>
        <time>2022-10-22T12:36:47Z</time>
      </trkpt>
      <trkpt lat="48.99154" lon="2.09101">
        <ele>24</ele>
        <time>2022-10-22T12:36:53Z</time>
      </trkpt>
      <trkpt lat="48.9914" lon="2.09098">
        <ele>23</ele>
        <time>2022-10-22T12:37:12Z</time>
      </trkpt>
      <trkpt lat="48.99138" lon="2.09098">
        <ele>23</ele>
        <time>2022-10-22T12:37:15Z</time>
      </trkpt>
      <trkpt lat="48.9914" lon="2.09031">
        <ele>24</ele>
        <time>2022-10-22T12:38:14Z</time>
      </trkpt>
      <trkpt lat="48.99141" lon="2.09028">
        <ele>24</ele>
        <time>2022-10-22T12:38:17Z</time>
      </trkpt>
      <trkpt lat="48.9914" lon="2.09025">
        <ele>24</ele>
        <time>2022-10-22T12:38:19Z</time>
      </trkpt>
      <trkpt lat="48.99132" lon="2.09024">
        <ele>24</ele>
        <time>2022-10-22T12:38:30Z</time>
      </trkpt>
      <trkpt lat="48.99132" lon="2.09027">
        <ele>24</ele>
        <time>2022-10-22T12:38:33Z</time>
      </trkpt>
      <trkpt lat="48.99132" lon="2.09024">
        <ele>24</ele>
        <time>2022-10-22T12:38:35Z</time>
      </trkpt>
      <trkpt lat="48.99129" lon="2.09022">
        <ele>24</ele>
        <time>2022-10-22T12:38:40Z</time>
      </trkpt>
      <trkpt lat="48.99127" lon="2.09017">
        <ele>24</ele>
        <time>2022-10-22T12:38:45Z</time>
      </trkpt>
      <trkpt lat="48.99122" lon="2.09017">
        <ele>24</ele>
        <time>2022-10-22T12:38:52Z</time>
      </trkpt>
      <trkpt lat="48.99121" lon="2.09015">
        <ele>24</ele>
        <time>2022-10-22T12:38:54Z</time>
      </trkpt>
      <trkpt lat="48.99117" lon="2.08963">
        <ele>24</ele>
        <time>2022-10-22T12:39:40Z</time>
      </trkpt>
      <trkpt lat="48.99117" lon="2.08962">
        <ele>24</ele>
        <time>2022-10-22T12:39:41Z</time>
      </trkpt>
      <trkpt lat="48.99113" lon="2.08963">
        <ele>24</ele>
        <time>2022-10-22T12:39:46Z</time>
      </trkpt>
      <trkpt lat="48.9911" lon="2.08964">
        <ele>24</ele>
        <time>2022-10-22T12:39:50Z</time>
      </trkpt>
      <trkpt lat="48.99106" lon="2.08965">
        <ele>23</ele>
        <time>2022-10-22T12:39:55Z</time>
      </trkpt>
      <trkpt lat="48.99105" lon="2.08965">
        <ele>23</ele>
        <time>2022-10-22T12:39:57Z</time>
      </trkpt>
      <trkpt lat="48.99097" lon="2.08876">
        <ele>24</ele>
        <time>2022-10-22T12:41:15Z</time>
      </trkpt>
      <trkpt lat="48.99098" lon="2.08876">
        <ele>24</ele>
        <time>2022-10-22T12:41:17Z</time>
      </trkpt>
      <trkpt lat="48.99097" lon="2.08876">
        <ele>24</ele>
        <time>2022-10-22T12:41:18Z</time>
      </trkpt>
      <trkpt lat="48.99065" lon="2.08759">
        <ele>23</ele>
        <time>2022-10-22T12:43:09Z</time>
      </trkpt>
      <trkpt lat="48.99045" lon="2.08681">
        <ele>24</ele>
        <time>2022-10-22T12:44:22Z</time>
      </trkpt>
      <trkpt lat="48.99036" lon="2.08644">
        <ele>24</ele>
        <time>2022-10-22T12:44:57Z</time>
      </trkpt>
      <trkpt lat="48.99017" lon="2.08565">
        <ele>24</ele>
        <time>2022-10-22T12:46:11Z</time>
      </trkpt>
      <trkpt lat="48.99001" lon="2.08499">
        <ele>23</ele>
        <time>2022-10-22T12:47:12Z</time>
      </trkpt>
      <trkpt lat="48.9899" lon="2.0843">
        <ele>23</ele>
        <time>2022-10-22T12:48:14Z</time>
      </trkpt>
      <trkpt lat="48.98981" lon="2.08367">
        <ele>23</ele>
        <time>2022-10-22T12:49:11Z</time>
      </trkpt>
      <trkpt lat="48.98975" lon="2.08294">
        <ele>24</ele>
        <time>2022-10-22T12:50:15Z</time>
      </trkpt>
      <trkpt lat="48.98975" lon="2.08295">
        <ele>24</ele>
        <time>2022-10-22T12:50:16Z</time>
      </trkpt>
      <trkpt lat="48.98975" lon="2.08294">
        <ele>24</ele>
        <time>2022-10-22T12:50:17Z</time>
      </trkpt>
      <trkpt lat="48.98967" lon="2.0829">
        <ele>23</ele>
        <time>2022-10-22T12:50:28Z</time>
      </trkpt>
      <trkpt lat="48.98967" lon="2.0829">
        <ele>23</ele>
        <time>2022-10-22T12:50:28Z</time>
      </trkpt>
      <trkpt lat="48.98967" lon="2.08268">
        <ele>23</ele>
        <time>2022-10-22T12:50:48Z</time>
      </trkpt>
      <trkpt lat="48.9896" lon="2.08244">
        <ele>22</ele>
        <time>2022-10-22T12:51:11Z</time>
      </trkpt>
      <trkpt lat="48.98958" lon="2.08242">
        <ele>22</ele>
        <time>2022-10-22T12:51:14Z</time>
      </trkpt>
      <trkpt lat="48.98957" lon="2.08242">
        <ele>22</ele>
        <time>2022-10-22T12:51:15Z</time>
      </trkpt>
      <trkpt lat="48.98955" lon="2.08244">
        <ele>22</ele>
        <time>2022-10-22T12:51:18Z</time>
      </trkpt>
      <trkpt lat="48.98812" lon="2.08331">
        <ele>23</ele>
        <time>2022-10-22T12:54:44Z</time>
      </trkpt>
      <trkpt lat="48.98798" lon="2.08339">
        <ele>23</ele>
        <time>2022-10-22T12:55:04Z</time>
      </trkpt>
      <trkpt lat="48.98788" lon="2.0834">
        <ele>23</ele>
        <time>2022-10-22T12:55:17Z</time>
      </trkpt>
      <trkpt lat="48.98788" lon="2.0834">
        <ele>23</ele>
        <time>2022-10-22T12:55:17Z</time>
      </trkpt>
      <trkpt lat="48.98785" lon="2.08354">
        <ele>23</ele>
        <time>2022-10-22T12:55:30Z</time>
      </trkpt>
      <trkpt lat="48.98781" lon="2.08359">
        <ele>23</ele>
        <time>2022-10-22T12:55:37Z</time>
      </trkpt>
      <trkpt lat="48.98777" lon="2.08364">
        <ele>23</ele>
        <time>2022-10-22T12:55:44Z</time>
      </trkpt>
      <trkpt lat="48.98756" lon="2.08376">
        <ele>23</ele>
        <time>2022-10-22T12:56:14Z</time>
      </trkpt>
      <trkpt lat="48.98714" lon="2.08401">
        <ele>23</ele>
        <time>2022-10-22T12:57:14Z</time>
      </trkpt>
      <trkpt lat="48.98673" lon="2.08424">
        <ele>25</ele>
        <time>2022-10-22T12:58:12Z</time>
      </trkpt>
      <trkpt lat="48.98588" lon="2.08474">
        <ele>24</ele>
        <time>2022-10-22T13:00:14Z</time>
      </trkpt>
      <trkpt lat="48.98541" lon="2.08497">
        <ele>24</ele>
        <time>2022-10-22T13:01:20Z</time>
      </trkpt>
      <trkpt lat="48.98538" lon="2.08499">
        <ele>24</ele>
        <time>2022-10-22T13:01:24Z</time>
      </trkpt>
      <trkpt lat="48.98541" lon="2.08497">
        <ele>24</ele>
        <time>2022-10-22T13:01:28Z</time>
      </trkpt>
      <trkpt lat="48.98536" lon="2.08513">
        <ele>24</ele>
        <time>2022-10-22T13:01:44Z</time>
      </trkpt>
      <trkpt lat="48.98535" lon="2.08536">
        <ele>24</ele>
        <time>2022-10-22T13:02:04Z</time>
      </trkpt>
      <trkpt lat="48.98531" lon="2.08563">
        <ele>24</ele>
        <time>2022-10-22T13:02:28Z</time>
      </trkpt>
      <trkpt lat="48.98531" lon="2.08566">
        <ele>24</ele>
        <time>2022-10-22T13:02:31Z</time>
      </trkpt>
      <trkpt lat="48.98535" lon="2.08591">
        <ele>23</ele>
        <time>2022-10-22T13:02:54Z</time>
      </trkpt>
      <trkpt lat="48.98541" lon="2.0863">
        <ele>23</ele>
        <time>2022-10-22T13:03:29Z</time>
      </trkpt>
      <trkpt lat="48.98551" lon="2.08689">
        <ele>22</ele>
        <time>2022-10-22T13:04:22Z</time>
      </trkpt>
      <trkpt lat="48.98566" lon="2.08777">
        <ele>21</ele>
        <time>2022-10-22T13:05:42Z</time>
      </trkpt>
      <trkpt lat="48.98579" lon="2.0886">
        <ele>22</ele>
        <time>2022-10-22T13:06:56Z</time>
      </trkpt>
      <trkpt lat="48.98581" lon="2.08882">
        <ele>21</ele>
        <time>2022-10-22T13:07:16Z</time>
      </trkpt>
      <trkpt lat="48.98585" lon="2.08952">
        <ele>21</ele>
        <time>2022-10-22T13:08:17Z</time>
      </trkpt>
      <trkpt lat="48.98595" lon="2.09207">
        <ele>21</ele>
        <time>2022-10-22T13:12:01Z</time>
      </trkpt>
      <trkpt lat="48.98599" lon="2.0931">
        <ele>21</ele>
        <time>2022-10-22T13:13:31Z</time>
      </trkpt>
      <trkpt lat="48.98601" lon="2.09443">
        <ele>21</ele>
        <time>2022-10-22T13:15:28Z</time>
      </trkpt>
      <trkpt lat="48.98602" lon="2.09582">
        <ele>21</ele>
        <time>2022-10-22T13:17:30Z</time>
      </trkpt>
      <trkpt lat="48.98601" lon="2.09775">
        <ele>20</ele>
        <time>2022-10-22T13:20:19Z</time>
      </trkpt>
      <trkpt lat="48.98599" lon="2.10258">
        <ele>20</ele>
        <time>2022-10-22T13:27:22Z</time>
      </trkpt>
      <trkpt lat="48.98529" lon="2.10248">
        <ele>20</ele>
        <time>2022-10-22T13:28:55Z</time>
      </trkpt>
      <trkpt lat="48.98433" lon="2.10215">
        <ele>20</ele>
        <time>2022-10-22T13:31:07Z</time>
      </trkpt>
      <trkpt lat="48.98344" lon="2.10167">
        <ele>21</ele>
        <time>2022-10-22T13:33:13Z</time>
      </trkpt>
      <trkpt lat="48.98342" lon="2.10166">
        <ele>21</ele>
        <time>2022-10-22T13:33:16Z</time>
      </trkpt>
      <trkpt lat="48.98339" lon="2.10155">
        <ele>21</ele>
        <time>2022-10-22T13:33:26Z</time>
      </trkpt>
      <trkpt lat="48.98331" lon="2.10151">
        <ele>21</ele>
        <time>2022-10-22T13:33:37Z</time>
      </trkpt>
      <trkpt lat="48.98331" lon="2.10148">
        <ele>21</ele>
        <time>2022-10-22T13:33:40Z</time>
      </trkpt>
      <trkpt lat="48.98319" lon="2.0998">
        <ele>23</ele>
        <time>2022-10-22T13:36:08Z</time>
      </trkpt>
      <trkpt lat="48.9829" lon="2.09552">
        <ele>21</ele>
        <time>2022-10-22T13:42:25Z</time>
      </trkpt>
      <trkpt lat="48.98271" lon="2.0926">
        <ele>22</ele>
        <time>2022-10-22T13:46:42Z</time>
      </trkpt>
      <trkpt lat="48.98254" lon="2.09032">
        <ele>23</ele>
        <time>2022-10-22T13:50:03Z</time>
      </trkpt>
      <trkpt lat="48.98243" lon="2.08984">
        <ele>23</ele>
        <time>2022-10-22T13:50:47Z</time>
      </trkpt>
      <trkpt lat="48.98237" lon="2.08968">
        <ele>23</ele>
        <time>2022-10-22T13:51:03Z</time>
      </trkpt>
      <trkpt lat="48.98202" lon="2.08887">
        <ele>24</ele>
        <time>2022-10-22T13:52:28Z</time>
      </trkpt>
      <trkpt lat="48.98184" lon="2.08847">
        <ele>24</ele>
        <time>2022-10-22T13:53:11Z</time>
      </trkpt>
      <trkpt lat="48.98179" lon="2.08842">
        <ele>24</ele>
        <time>2022-10-22T13:53:19Z</time>
      </trkpt>
      <trkpt lat="48.98173" lon="2.08839">
        <ele>24</ele>
        <time>2022-10-22T13:53:27Z</time>
      </trkpt>
      <trkpt lat="48.98159" lon="2.08839">
        <ele>24</ele>
        <time>2022-10-22T13:53:46Z</time>
      </trkpt>
      <trkpt lat="48.98156" lon="2.08843">
        <ele>24</ele>
        <time>2022-10-22T13:53:51Z</time>
      </trkpt>
      <trkpt lat="48.98147" lon="2.08843">
        <ele>24</ele>
        <time>2022-10-22T13:54:03Z</time>
      </trkpt>
      <trkpt lat="48.98139" lon="2.08839">
        <ele>24</ele>
        <time>2022-10-22T13:54:14Z</time>
      </trkpt>
      <trkpt lat="48.98135" lon="2.08836">
        <ele>24</ele>
        <time>2022-10-22T13:54:20Z</time>
      </trkpt>
      <trkpt lat="48.98133" lon="2.0884">
        <ele>24</ele>
        <time>2022-10-22T13:54:25Z</time>
      </trkpt>
      <trkpt lat="48.98126" lon="2.08838">
        <ele>23</ele>
        <time>2022-10-22T13:54:34Z</time>
      </trkpt>
      <trkpt lat="48.98101" lon="2.08841">
        <ele>23</ele>
        <time>2022-10-22T13:55:08Z</time>
      </trkpt>
      <trkpt lat="48.98071" lon="2.08837">
        <ele>23</ele>
        <time>2022-10-22T13:55:48Z</time>
      </trkpt>
      <trkpt lat="48.98059" lon="2.08835">
        <ele>24</ele>
        <time>2022-10-22T13:56:04Z</time>
      </trkpt>
      <trkpt lat="48.98046" lon="2.08831">
        <ele>24</ele>
        <time>2022-10-22T13:56:22Z</time>
      </trkpt>
      <trkpt lat="48.98033" lon="2.08822">
        <ele>25</ele>
        <time>2022-10-22T13:56:41Z</time>
      </trkpt>
      <trkpt lat="48.98029" lon="2.08818">
        <ele>25</ele>
        <time>2022-10-22T13:56:47Z</time>
      </trkpt>
      <trkpt lat="48.97997" lon="2.08774">
        <ele>25</ele>
        <time>2022-10-22T13:57:45Z</time>
      </trkpt>
      <trkpt lat="48.97987" lon="2.08762">
        <ele>24</ele>
        <time>2022-10-22T13:58:02Z</time>
      </trkpt>
      <trkpt lat="48.97968" lon="2.08749">
        <ele>24</ele>
        <time>2022-10-22T13:58:29Z</time>
      </trkpt>
      <trkpt lat="48.97968" lon="2.0875">
        <ele>24</ele>
        <time>2022-10-22T13:58:30Z</time>
      </trkpt>
      <trkpt lat="48.97968" lon="2.08749">
        <ele>24</ele>
        <time>2022-10-22T13:58:31Z</time>
      </trkpt>
      <trkpt lat="48.97952" lon="2.08745">
        <ele>24</ele>
        <time>2022-10-22T13:58:53Z</time>
      </trkpt>
      <trkpt lat="48.97952" lon="2.08745">
        <ele>24</ele>
        <time>2022-10-22T13:58:53Z</time>
      </trkpt>
      <trkpt lat="48.97948" lon="2.08763">
        <ele>24</ele>
        <time>2022-10-22T13:59:09Z</time>
      </trkpt>
      <trkpt lat="48.97932" lon="2.08778">
        <ele>25</ele>
        <time>2022-10-22T13:59:35Z</time>
      </trkpt>
      <trkpt lat="48.97897" lon="2.08848">
        <ele>27</ele>
        <time>2022-10-22T14:00:52Z</time>
      </trkpt>
      <trkpt lat="48.97895" lon="2.08858">
        <ele>26</ele>
        <time>2022-10-22T14:01:01Z</time>
      </trkpt>
      <trkpt lat="48.97893" lon="2.0886">
        <ele>26</ele>
        <time>2022-10-22T14:01:04Z</time>
      </trkpt>
      <trkpt lat="48.97895" lon="2.08858">
        <ele>26</ele>
        <time>2022-10-22T14:01:07Z</time>
      </trkpt>
      <trkpt lat="48.97891" lon="2.08931">
        <ele>25</ele>
        <time>2022-10-22T14:02:11Z</time>
      </trkpt>
      <trkpt lat="48.9789" lon="2.08939">
        <ele>25</ele>
        <time>2022-10-22T14:02:18Z</time>
      </trkpt>
      <trkpt lat="48.97889" lon="2.08943">
        <ele>25</ele>
        <time>2022-10-22T14:02:22Z</time>
      </trkpt>
      <trkpt lat="48.97879" lon="2.09005">
        <ele>24</ele>
        <time>2022-10-22T14:03:18Z</time>
      </trkpt>
      <trkpt lat="48.97874" lon="2.09023">
        <ele>25</ele>
        <time>2022-10-22T14:03:35Z</time>
      </trkpt>
      <trkpt lat="48.97874" lon="2.09022">
        <ele>25</ele>
        <time>2022-10-22T14:03:36Z</time>
      </trkpt>
      <trkpt lat="48.97874" lon="2.09023">
        <ele>25</ele>
        <time>2022-10-22T14:03:37Z</time>
      </trkpt>
      <trkpt lat="48.97867" lon="2.09081">
        <ele>25</ele>
        <time>2022-10-22T14:04:29Z</time>
      </trkpt>
      <trkpt lat="48.97867" lon="2.09083">
        <ele>25</ele>
        <time>2022-10-22T14:04:30Z</time>
      </trkpt>
      <trkpt lat="48.97855" lon="2.09116">
        <ele>25</ele>
        <time>2022-10-22T14:05:03Z</time>
      </trkpt>
      <trkpt lat="48.9785" lon="2.09135">
        <ele>25</ele>
        <time>2022-10-22T14:05:21Z</time>
      </trkpt>
      <trkpt lat="48.97832" lon="2.09181">
        <ele>25</ele>
        <time>2022-10-22T14:06:08Z</time>
      </trkpt>
      <trkpt lat="48.97827" lon="2.09188">
        <ele>25</ele>
        <time>2022-10-22T14:06:17Z</time>
      </trkpt>
      <trkpt lat="48.97801" lon="2.09231">
        <ele>25</ele>
        <time>2022-10-22T14:07:09Z</time>
      </trkpt>
      <trkpt lat="48.97782" lon="2.09288">
        <ele>25</ele>
        <time>2022-10-22T14:08:05Z</time>
      </trkpt>
      <trkpt lat="48.97772" lon="2.09318">
        <ele>25</ele>
        <time>2022-10-22T14:08:34Z</time>
      </trkpt>
      <trkpt lat="48.97771" lon="2.0933">
        <ele>25</ele>
        <time>2022-10-22T14:08:45Z</time>
      </trkpt>
      <trkpt lat="48.97775" lon="2.09347">
        <ele>25</ele>
        <time>2022-10-22T14:09:00Z</time>
      </trkpt>
      <trkpt lat="48.97786" lon="2.09353">
        <ele>26</ele>
        <time>2022-10-22T14:09:16Z</time>
      </trkpt>
      <trkpt lat="48.97786" lon="2.09353">
        <ele>26</ele>
        <time>2022-10-22T14:09:16Z</time>
      </trkpt>
      <trkpt lat="48.97802" lon="2.09417">
        <ele>26</ele>
        <time>2022-10-22T14:10:16Z</time>
      </trkpt>
      <trkpt lat="48.97807" lon="2.09436">
        <ele>26</ele>
        <time>2022-10-22T14:10:34Z</time>
      </trkpt>
      <trkpt lat="48.97811" lon="2.09468">
        <ele>26</ele>
        <time>2022-10-22T14:11:02Z</time>
      </trkpt>
      <trkpt lat="48.97814" lon="2.09502">
        <ele>25</ele>
        <time>2022-10-22T14:11:32Z</time>
      </trkpt>
      <trkpt lat="48.97813" lon="2.09502">
        <ele>25</ele>
        <time>2022-10-22T14:11:34Z</time>
      </trkpt>
      <trkpt lat="48.97814" lon="2.09502">
        <ele>25</ele>
        <time>2022-10-22T14:11:35Z</time>
      </trkpt>
      <trkpt lat="48.97817" lon="2.09582">
        <ele>25</ele>
        <time>2022-10-22T14:12:45Z</time>
      </trkpt>
      <trkpt lat="48.97817" lon="2.09583">
        <ele>25</ele>
        <time>2022-10-22T14:12:46Z</time>
      </trkpt>
      <trkpt lat="48.97794" lon="2.09715">
        <ele>25</ele>
        <time>2022-10-22T14:14:46Z</time>
      </trkpt>
      <trkpt lat="48.97773" lon="2.09825">
        <ele>24</ele>
        <time>2022-10-22T14:16:26Z</time>
      </trkpt>
      <trkpt lat="48.97768" lon="2.09862">
        <ele>24</ele>
        <time>2022-10-22T14:16:59Z</time>
      </trkpt>
      <trkpt lat="48.97757" lon="2.09931">
        <ele>25</ele>
        <time>2022-10-22T14:18:01Z</time>
      </trkpt>
      <trkpt lat="48.97757" lon="2.09932">
        <ele>25</ele>
        <time>2022-10-22T14:18:02Z</time>
      </trkpt>
      <trkpt lat="48.97736" lon="2.09965">
        <ele>27</ele>
        <time>2022-10-22T14:18:43Z</time>
      </trkpt>
      <trkpt lat="48.97722" lon="2.09971">
        <ele>28</ele>
        <time>2022-10-22T14:19:02Z</time>
      </trkpt>
      <trkpt lat="48.977" lon="2.09971">
        <ele>29</ele>
        <time>2022-10-22T14:19:31Z</time>
      </trkpt>
      <trkpt lat="48.97642" lon="2.09942">
        <ele>29</ele>
        <time>2022-10-22T14:20:53Z</time>
      </trkpt>
      <trkpt lat="48.97621" lon="2.09928">
        <ele>29</ele>
        <time>2022-10-22T14:21:23Z</time>
      </trkpt>
      <trkpt lat="48.97621" lon="2.09928">
        <ele>29</ele>
        <time>2022-10-22T14:21:23Z</time>
      </trkpt>
      <trkpt lat="48.97584" lon="2.09922">
        <ele>31</ele>
        <time>2022-10-22T14:22:13Z</time>
      </trkpt>
      <trkpt lat="48.97585" lon="2.09916">
        <ele>31</ele>
        <time>2022-10-22T14:22:19Z</time>
      </trkpt>
      <trkpt lat="48.97553" lon="2.10067">
        <ele>35</ele>
        <time>2022-10-22T14:24:37Z</time>
      </trkpt>
      <trkpt lat="48.97552" lon="2.10067">
        <ele>35</ele>
        <time>2022-10-22T14:24:39Z</time>
      </trkpt>
      <trkpt lat="48.96887" lon="2.09995">
        <ele>50</ele>
        <time>2022-10-22T14:39:28Z</time>
      </trkpt>
      <trkpt lat="48.96801" lon="2.0998">
        <ele>50</ele>
        <time>2022-10-22T14:41:24Z</time>
      </trkpt>
      <trkpt lat="48.96801" lon="2.09981">
        <ele>50</ele>
        <time>2022-10-22T14:41:25Z</time>
      </trkpt>
      <trkpt lat="48.96801" lon="2.0998">
        <ele>50</ele>
        <time>2022-10-22T14:41:26Z</time>
      </trkpt>
      <trkpt lat="48.96626" lon="2.09755">
        <ele>47</ele>
        <time>2022-10-22T14:46:31Z</time>
      </trkpt>
      <trkpt lat="48.96461" lon="2.09549">
        <ele>46</ele>
        <time>2022-10-22T14:51:16Z</time>
      </trkpt>
      <trkpt lat="48.9646" lon="2.09548">
        <ele>46</ele>
        <time>2022-10-22T14:51:18Z</time>
      </trkpt>
      <trkpt lat="48.96449" lon="2.09529">
        <ele>45</ele>
        <time>2022-10-22T14:51:40Z</time>
      </trkpt>
      <trkpt lat="48.96336" lon="2.09307">
        <ele>44</ele>
        <time>2022-10-22T14:55:46Z</time>
      </trkpt>
      <trkpt lat="48.96326" lon="2.09285">
        <ele>43</ele>
        <time>2022-10-22T14:56:09Z</time>
      </trkpt>
      <trkpt lat="48.96331" lon="2.09284">
        <ele>43</ele>
        <time>2022-10-22T14:56:16Z</time>
      </trkpt>
      <trkpt lat="48.9616" lon="2.09321">
        <ele>40</ele>
        <time>2022-10-22T15:00:07Z</time>
      </trkpt>
      <trkpt lat="48.9593" lon="2.09378">
        <ele>41</ele>
        <time>2022-10-22T15:05:18Z</time>
      </trkpt>
      <trkpt lat="48.9582" lon="2.09402">
        <ele>40</ele>
        <time>2022-10-22T15:07:46Z</time>
      </trkpt>
      <trkpt lat="48.95817" lon="2.09402">
        <ele>40</ele>
        <time>2022-10-22T15:07:50Z</time>
      </trkpt>
      <trkpt lat="48.9582" lon="2.09402">
        <ele>40</ele>
        <time>2022-10-22T15:07:54Z</time>
      </trkpt>
      <trkpt lat="48.95801" lon="2.09346">
        <ele>41</ele>
        <time>2022-10-22T15:08:49Z</time>
      </trkpt>
      <trkpt lat="48.95779" lon="2.09273">
        <ele>42</ele>
        <time>2022-10-22T15:09:59Z</time>
      </trkpt>
      <trkpt lat="48.95776" lon="2.09266">
        <ele>42</ele>
        <time>2022-10-22T15:10:07Z</time>
      </trkpt>
      <trkpt lat="48.95774" lon="2.09267">
        <ele>42</ele>
        <time>2022-10-22T15:10:10Z</time>
      </trkpt>
      <trkpt lat="48.95766" lon="2.09272">
        <ele>42</ele>
        <time>2022-10-22T15:10:21Z</time>
      </trkpt>
      <trkpt lat="48.95753" lon="2.09263">
        <ele>42</ele>
        <time>2022-10-22T15:10:40Z</time>
      </trkpt>
      <trkpt lat="48.95751" lon="2.09259">
        <ele>42</ele>
        <time>2022-10-22T15:10:45Z</time>
      </trkpt>
      <trkpt lat="48.95746" lon="2.09251">
        <ele>42</ele>
        <time>2022-10-22T15:10:54Z</time>
      </trkpt>
      <trkpt lat="48.95728" lon="2.09233">
        <ele>42</ele>
        <time>2022-10-22T15:11:23Z</time>
      </trkpt>
      <trkpt lat="48.95714" lon="2.09222">
        <ele>42</ele>
        <time>2022-10-22T15:11:44Z</time>
      </trkpt>
      <trkpt lat="48.95712" lon="2.09217">
        <ele>42</ele>
        <time>2022-10-22T15:11:49Z</time>
      </trkpt>
      <trkpt lat="48.95702" lon="2.09211">
        <ele>42</ele>
        <time>2022-10-22T15:12:03Z</time>
      </trkpt>
      <trkpt lat="48.95699" lon="2.09201">
        <ele>42</ele>
        <time>2022-10-22T15:12:13Z</time>
      </trkpt>
      <trkpt lat="48.95684" lon="2.09193">
        <ele>42</ele>
        <time>2022-10-22T15:12:34Z</time>
      </trkpt>
      <trkpt lat="48.95683" lon="2.0919">
        <ele>42</ele>
        <time>2022-10-22T15:12:37Z</time>
      </trkpt>
      <trkpt lat="48.95674" lon="2.09173">
        <ele>43</ele>
        <time>2022-10-22T15:12:56Z</time>
      </trkpt>
      <trkpt lat="48.95671" lon="2.09161">
        <ele>43</ele>
        <time>2022-10-22T15:13:08Z</time>
      </trkpt>
      <trkpt lat="48.95669" lon="2.09153">
        <ele>43</ele>
        <time>2022-10-22T15:13:15Z</time>
      </trkpt>
      <trkpt lat="48.95669" lon="2.09145">
        <ele>43</ele>
        <time>2022-10-22T15:13:22Z</time>
      </trkpt>
      <trkpt lat="48.95668" lon="2.09145">
        <ele>43</ele>
        <time>2022-10-22T15:13:24Z</time>
      </trkpt>
      <trkpt lat="48.95658" lon="2.09139">
        <ele>43</ele>
        <time>2022-10-22T15:13:38Z</time>
      </trkpt>
      <trkpt lat="48.95658" lon="2.09139">
        <ele>43</ele>
        <time>2022-10-22T15:13:38Z</time>
      </trkpt>
      <trkpt lat="48.95656" lon="2.09123">
        <ele>43</ele>
        <time>2022-10-22T15:13:52Z</time>
      </trkpt>
      <trkpt lat="48.95657" lon="2.09123">
        <ele>43</ele>
        <time>2022-10-22T15:13:53Z</time>
      </trkpt>
      <trkpt lat="48.95652" lon="2.09125">
        <ele>43</ele>
        <time>2022-10-22T15:14:00Z</time>
      </trkpt>
      <trkpt lat="48.95652" lon="2.09128">
        <ele>43</ele>
        <time>2022-10-22T15:14:03Z</time>
      </trkpt>
      <trkpt lat="48.95638" lon="2.09134">
        <ele>42</ele>
        <time>2022-10-22T15:14:22Z</time>
      </trkpt>
      <trkpt lat="48.95629" lon="2.09138">
        <ele>42</ele>
        <time>2022-10-22T15:14:35Z</time>
      </trkpt>
      <trkpt lat="48.95629" lon="2.09135">
        <ele>42</ele>
        <time>2022-10-22T15:14:38Z</time>
      </trkpt>
      <trkpt lat="48.95626" lon="2.09136">
        <ele>42</ele>
        <time>2022-10-22T15:14:42Z</time>
      </trkpt>
      <trkpt lat="48.95613" lon="2.09142">
        <ele>42</ele>
        <time>2022-10-22T15:15:00Z</time>
      </trkpt>
      <trkpt lat="48.95611" lon="2.09143">
        <ele>42</ele>
        <time>2022-10-22T15:15:03Z</time>
      </trkpt>
      <trkpt lat="48.95591" lon="2.09153">
        <ele>41</ele>
        <time>2022-10-22T15:15:31Z</time>
      </trkpt>
      <trkpt lat="48.95572" lon="2.09162">
        <ele>41</ele>
        <time>2022-10-22T15:15:57Z</time>
      </trkpt>
      <trkpt lat="48.95539" lon="2.09178">
        <ele>42</ele>
        <time>2022-10-22T15:16:43Z</time>
      </trkpt>
      <trkpt lat="48.95521" lon="2.09187">
        <ele>42</ele>
        <time>2022-10-22T15:17:09Z</time>
      </trkpt>
      <trkpt lat="48.95499" lon="2.09198">
        <ele>43</ele>
        <time>2022-10-22T15:17:40Z</time>
      </trkpt>
      <trkpt lat="48.95498" lon="2.09199">
        <ele>43</ele>
        <time>2022-10-22T15:17:41Z</time>
      </trkpt>
      <trkpt lat="48.95461" lon="2.09218">
        <ele>44</ele>
        <time>2022-10-22T15:18:33Z</time>
      </trkpt>
      <trkpt lat="48.95434" lon="2.09232">
        <ele>45</ele>
        <time>2022-10-22T15:19:11Z</time>
      </trkpt>
      <trkpt lat="48.95434" lon="2.09231">
        <ele>45</ele>
        <time>2022-10-22T15:19:12Z</time>
      </trkpt>
      <trkpt lat="48.95437" lon="2.09251">
        <ele>44</ele>
        <time>2022-10-22T15:19:30Z</time>
      </trkpt>
      <trkpt lat="48.95292" lon="2.09512">
        <ele>49</ele>
        <time>2022-10-22T15:24:30Z</time>
      </trkpt>
      <trkpt lat="48.94999" lon="2.09998">
        <ele>60</ele>
        <time>2022-10-22T15:34:08Z</time>
      </trkpt>
      <trkpt lat="48.94554" lon="2.09847">
        <ele>59</ele>
        <time>2022-10-22T15:44:16Z</time>
      </trkpt>
      <trkpt lat="48.94029" lon="2.09679">
        <ele>65</ele>
        <time>2022-10-22T15:56:12Z</time>
      </trkpt>
      <trkpt lat="48.93985" lon="2.09707">
        <ele>66</ele>
        <time>2022-10-22T15:57:16Z</time>
      </trkpt>
      <trkpt lat="48.93977" lon="2.09704">
        <ele>66</ele>
        <time>2022-10-22T15:57:27Z</time>
      </trkpt>
      <trkpt lat="48.93959" lon="2.09689">
        <ele>66</ele>
        <time>2022-10-22T15:57:54Z</time>
      </trkpt>
      <trkpt lat="48.93959" lon="2.09678">
        <ele>66</ele>
        <time>2022-10-22T15:58:04Z</time>
      </trkpt>
      <trkpt lat="48.93956" lon="2.09648">
        <ele>66</ele>
        <time>2022-10-22T15:58:31Z</time>
      </trkpt>
      <trkpt lat="48.93953" lon="2.09613">
        <ele>65</ele>
        <time>2022-10-22T15:59:01Z</time>
      </trkpt>
      <trkpt lat="48.9395" lon="2.096">
        <ele>65</ele>
        <time>2022-10-22T15:59:14Z</time>
      </trkpt>
      <trkpt lat="48.93943" lon="2.09581">
        <ele>65</ele>
        <time>2022-10-22T15:59:33Z</time>
      </trkpt>
      <trkpt lat="48.93935" lon="2.09569">
        <ele>65</ele>
        <time>2022-10-22T15:59:48Z</time>
      </trkpt>
      <trkpt lat="48.93904" lon="2.09576">
        <ele>66</ele>
        <time>2022-10-22T16:00:29Z</time>
      </trkpt>
      <trkpt lat="48.93893" lon="2.09564">
        <ele>66</ele>
        <time>2022-10-22T16:00:48Z</time>
      </trkpt>
      <trkpt lat="48.93824" lon="2.09457">
        <ele>67</ele>
        <time>2022-10-22T16:02:59Z</time>
      </trkpt>
      <trkpt lat="48.93546" lon="2.09024">
        <ele>70</ele>
        <time>2022-10-22T16:11:50Z</time>
      </trkpt>
      <trkpt lat="48.93542" lon="2.09019">
        <ele>70</ele>
        <time>2022-10-22T16:11:57Z</time>
      </trkpt>
      <trkpt lat="48.93181" lon="2.08456">
        <ele>74</ele>
        <time>2022-10-22T16:23:26Z</time>
      </trkpt>
      <trkpt lat="48.92895" lon="2.08019">
        <ele>76</ele>
        <time>2022-10-22T16:32:27Z</time>
      </trkpt>
      <trkpt lat="48.92894" lon="2.08016">
        <ele>76</ele>
        <time>2022-10-22T16:32:30Z</time>
      </trkpt>
      <trkpt lat="48.92548" lon="2.07488">
        <ele>80</ele>
        <time>2022-10-22T16:43:24Z</time>
      </trkpt>
      <trkpt lat="48.92324" lon="2.07141">
        <ele>79</ele>
        <time>2022-10-22T16:50:30Z</time>
      </trkpt>
      <trkpt lat="48.92323" lon="2.07151">
        <ele>79</ele>
        <time>2022-10-22T16:50:39Z</time>
      </trkpt>
      <trkpt lat="48.92324" lon="2.07141">
        <ele>79</ele>
        <time>2022-10-22T16:50:48Z</time>
      </trkpt>
      <trkpt lat="48.9233" lon="2.07117">
        <ele>79</ele>
        <time>2022-10-22T16:51:11Z</time>
      </trkpt>
      <trkpt lat="48.92436" lon="2.06824">
        <ele>80</ele>
        <time>2022-10-22T16:56:04Z</time>
      </trkpt>
      <trkpt lat="48.92434" lon="2.06821">
        <ele>80</ele>
        <time>2022-10-22T16:56:08Z</time>
      </trkpt>
      <trkpt lat="48.92436" lon="2.06824">
        <ele>80</ele>
        <time>2022-10-22T16:56:11Z</time>
      </trkpt>
      <trkpt lat="48.92547" lon="2.06542">
        <ele>69</ele>
        <time>2022-10-22T17:01:00Z</time>
      </trkpt>
      <trkpt lat="48.92536" lon="2.06505">
        <ele>68</ele>
        <time>2022-10-22T17:01:35Z</time>
      </trkpt>
      <trkpt lat="48.92547" lon="2.06542">
        <ele>69</ele>
        <time>2022-10-22T17:02:11Z</time>
      </trkpt>
      <trkpt lat="48.92591" lon="2.06406">
        <ele>62</ele>
        <time>2022-10-22T17:04:24Z</time>
      </trkpt>
      <trkpt lat="48.92688" lon="2.06249">
        <ele>68</ele>
        <time>2022-10-22T17:07:33Z</time>
      </trkpt>
      <trkpt lat="48.92681" lon="2.0624">
        <ele>68</ele>
        <time>2022-10-22T17:07:45Z</time>
      </trkpt>
      <trkpt lat="48.92688" lon="2.06249">
        <ele>68</ele>
        <time>2022-10-22T17:07:57Z</time>
      </trkpt>
      <trkpt lat="48.92789" lon="2.06071">
        <ele>68</ele>
        <time>2022-10-22T17:11:23Z</time>
      </trkpt>
      <trkpt lat="48.92828" lon="2.0599">
        <ele>68</ele>
        <time>2022-10-22T17:12:51Z</time>
      </trkpt>
      <trkpt lat="48.92823" lon="2.05983">
        <ele>68</ele>
        <time>2022-10-22T17:13:01Z</time>
      </trkpt>
      <trkpt lat="48.92828" lon="2.0599">
        <ele>68</ele>
        <time>2022-10-22T17:13:10Z</time>
      </trkpt>
      <trkpt lat="48.92915" lon="2.06098">
        <ele>66</ele>
        <time>2022-10-22T17:15:39Z</time>
      </trkpt>
      <trkpt lat="48.93209" lon="2.06455">
        <ele>63</ele>
        <time>2022-10-22T17:24:01Z</time>
      </trkpt>
      <trkpt lat="48.93207" lon="2.06451">
        <ele>63</ele>
        <time>2022-10-22T17:24:06Z</time>
      </trkpt>
      <trkpt lat="48.93332" lon="2.06236">
        <ele>48</ele>
        <time>2022-10-22T17:28:17Z</time>
      </trkpt>
      <trkpt lat="48.93337" lon="2.06227">
        <ele>47</ele>
        <time>2022-10-22T17:28:28Z</time>
      </trkpt>
      <trkpt lat="48.93358" lon="2.06187">
        <ele>43</ele>
        <time>2022-10-22T17:29:13Z</time>
      </trkpt>
      <trkpt lat="48.93372" lon="2.06159">
        <ele>41</ele>
        <time>2022-10-22T17:29:43Z</time>
      </trkpt>
      <trkpt lat="48.935" lon="2.05916">
        <ele>30</ele>
        <time>2022-10-22T17:34:16Z</time>
      </trkpt>
      <trkpt lat="48.93513" lon="2.05907">
        <ele>30</ele>
        <time>2022-10-22T17:34:36Z</time>
      </trkpt>
      <trkpt lat="48.93509" lon="2.05892">
        <ele>30</ele>
        <time>2022-10-22T17:34:50Z</time>
      </trkpt>
      <trkpt lat="48.93502" lon="2.05871">
        <ele>30</ele>
        <time>2022-10-22T17:35:10Z</time>
      </trkpt>
      <trkpt lat="48.9349" lon="2.05875">
        <ele>30</ele>
        <time>2022-10-22T17:35:27Z</time>
      </trkpt>
      <trkpt lat="48.93484" lon="2.05871">
        <ele>30</ele>
        <time>2022-10-22T17:35:36Z</time>
      </trkpt>
      <trkpt lat="48.93482" lon="2.05876">
        <ele>30</ele>
        <time>2022-10-22T17:35:41Z</time>
      </trkpt>
      <trkpt lat="48.93433" lon="2.05826">
        <ele>30</ele>
        <time>2022-10-22T17:36:59Z</time>
      </trkpt>
      <trkpt lat="48.93426" lon="2.05825">
        <ele>30</ele>
        <time>2022-10-22T17:37:09Z</time>
      </trkpt>
      <trkpt lat="48.93411" lon="2.05811">
        <ele>30</ele>
        <time>2022-10-22T17:37:32Z</time>
      </trkpt>
      <trkpt lat="48.93406" lon="2.05797">
        <ele>31</ele>
        <time>2022-10-22T17:37:46Z</time>
      </trkpt>
      <trkpt lat="48.93315" lon="2.05705">
        <ele>31</ele>
        <time>2022-10-22T17:40:12Z</time>
      </trkpt>
      <trkpt lat="48.93311" lon="2.05704">
        <ele>31</ele>
        <time>2022-10-22T17:40:17Z</time>
      </trkpt>
      <trkpt lat="48.93304" lon="2.05697">
        <ele>32</ele>
        <time>2022-10-22T17:40:29Z</time>
      </trkpt>
      <trkpt lat="48.93303" lon="2.05692">
        <ele>32</ele>
        <time>2022-10-22T17:40:33Z</time>
      </trkpt>
      <trkpt lat="48.93288" lon="2.05677">
        <ele>32</ele>
        <time>2022-10-22T17:40:57Z</time>
      </trkpt>
      <trkpt lat="48.93284" lon="2.05673">
        <ele>32</ele>
        <time>2022-10-22T17:41:03Z</time>
      </trkpt>
      <trkpt lat="48.93286" lon="2.05667">
        <ele>32</ele>
        <time>2022-10-22T17:41:09Z</time>
      </trkpt>
      <trkpt lat="48.93288" lon="2.05669">
        <ele>32</ele>
        <time>2022-10-22T17:41:13Z</time>
      </trkpt>
      <trkpt lat="48.93286" lon="2.05667">
        <ele>32</ele>
        <time>2022-10-22T17:41:16Z</time>
      </trkpt>
      <trkpt lat="48.93284" lon="2.05673">
        <ele>32</ele>
        <time>2022-10-22T17:41:22Z</time>
      </trkpt>
      <trkpt lat="48.9327" lon="2.05655">
        <ele>32</ele>
        <time>2022-10-22T17:41:46Z</time>
      </trkpt>
      <trkpt lat="48.93264" lon="2.05651">
        <ele>32</ele>
        <time>2022-10-22T17:41:55Z</time>
      </trkpt>
      <trkpt lat="48.93259" lon="2.05644">
        <ele>32</ele>
        <time>2022-10-22T17:42:04Z</time>
      </trkpt>
      <trkpt lat="48.93217" lon="2.05555">
        <ele>31</ele>
        <time>2022-10-22T17:43:40Z</time>
      </trkpt>
      <trkpt lat="48.93217" lon="2.05549">
        <ele>31</ele>
        <time>2022-10-22T17:43:45Z</time>
      </trkpt>
      <trkpt lat="48.93141" lon="2.05394">
        <ele>31</ele>
        <time>2022-10-22T17:46:35Z</time>
      </trkpt>
      <trkpt lat="48.93102" lon="2.05316">
        <ele>30</ele>
        <time>2022-10-22T17:48:01Z</time>
      </trkpt>
      <trkpt lat="48.93099" lon="2.05315">
        <ele>30</ele>
        <time>2022-10-22T17:48:05Z</time>
      </trkpt>
      <trkpt lat="48.93094" lon="2.05307">
        <ele>30</ele>
        <time>2022-10-22T17:48:15Z</time>
      </trkpt>
      <trkpt lat="48.93079" lon="2.05278">
        <ele>30</ele>
        <time>2022-10-22T17:48:47Z</time>
      </trkpt>
      <trkpt lat="48.93074" lon="2.05272">
        <ele>30</ele>
        <time>2022-10-22T17:48:55Z</time>
      </trkpt>
      <trkpt lat="48.93022" lon="2.05164">
        <ele>30</ele>
        <time>2022-10-22T17:50:53Z</time>
      </trkpt>
      <trkpt lat="48.93021" lon="2.05151">
        <ele>30</ele>
        <time>2022-10-22T17:51:04Z</time>
      </trkpt>
      <trkpt lat="48.93027" lon="2.05146">
        <ele>30</ele>
        <time>2022-10-22T17:51:13Z</time>
      </trkpt>
      <trkpt lat="48.93017" lon="2.05119">
        <ele>30</ele>
        <time>2022-10-22T17:51:41Z</time>
      </trkpt>
      <trkpt lat="48.92993" lon="2.05071">
        <ele>29</ele>
        <time>2022-10-22T17:52:33Z</time>
      </trkpt>
      <trkpt lat="48.92952" lon="2.05002">
        <ele>31</ele>
        <time>2022-10-22T17:53:55Z</time>
      </trkpt>
      <trkpt lat="48.92899" lon="2.04907">
        <ele>31</ele>
        <time>2022-10-22T17:55:44Z</time>
      </trkpt>
      <trkpt lat="48.92889" lon="2.04894">
        <ele>31</ele>
        <time>2022-10-22T17:56:02Z</time>
      </trkpt>
      <trkpt lat="48.92888" lon="2.0488">
        <ele>31</ele>
        <time>2022-10-22T17:56:14Z</time>
      </trkpt>
      <trkpt lat="48.92881" lon="2.04866">
        <ele>31</ele>
        <time>2022-10-22T17:56:30Z</time>
      </trkpt>
      <trkpt lat="48.92874" lon="2.04868">
        <ele>31</ele>
        <time>2022-10-22T17:56:39Z</time>
      </trkpt>
      <trkpt lat="48.92863" lon="2.0485">
        <ele>31</ele>
        <time>2022-10-22T17:57:01Z</time>
      </trkpt>
      <trkpt lat="48.92852" lon="2.04838">
        <ele>32</ele>
        <time>2022-10-22T17:57:19Z</time>
      </trkpt>
      <trkpt lat="48.92799" lon="2.04751">
        <ele>32</ele>
        <time>2022-10-22T17:59:03Z</time>
      </trkpt>
      <trkpt lat="48.92721" lon="2.04636">
        <ele>34</ele>
        <time>2022-10-22T18:01:28Z</time>
      </trkpt>
      <trkpt lat="48.92719" lon="2.0464">
        <ele>34</ele>
        <time>2022-10-22T18:01:32Z</time>
      </trkpt>
      <trkpt lat="48.92714" lon="2.04632">
        <ele>35</ele>
        <time>2022-10-22T18:01:42Z</time>
      </trkpt>
      <trkpt lat="48.92712" lon="2.04636">
        <ele>35</ele>
        <time>2022-10-22T18:01:46Z</time>
      </trkpt>
      <trkpt lat="48.92729" lon="2.04596">
        <ele>34</ele>
        <time>2022-10-22T18:02:28Z</time>
      </trkpt>
      <trkpt lat="48.92747" lon="2.04594">
        <ele>34</ele>
        <time>2022-10-22T18:02:52Z</time>
      </trkpt>
      <trkpt lat="48.92746" lon="2.04583">
        <ele>34</ele>
        <time>2022-10-22T18:03:02Z</time>
      </trkpt>
      <trkpt lat="48.92747" lon="2.04576">
        <ele>34</ele>
        <time>2022-10-22T18:03:08Z</time>
      </trkpt>
      <trkpt lat="48.92761" lon="2.04548">
        <ele>34</ele>
        <time>2022-10-22T18:03:39Z</time>
      </trkpt>
      <trkpt lat="48.92806" lon="2.04488">
        <ele>33</ele>
        <time>2022-10-22T18:04:59Z</time>
      </trkpt>
      <trkpt lat="48.92874" lon="2.04389">
        <ele>32</ele>
        <time>2022-10-22T18:07:04Z</time>
      </trkpt>
      <trkpt lat="48.92934" lon="2.04287">
        <ele>31</ele>
        <time>2022-10-22T18:09:04Z</time>
      </trkpt>
      <trkpt lat="48.92996" lon="2.0418">
        <ele>32</ele>
        <time>2022-10-22T18:11:09Z</time>
      </trkpt>
      <trkpt lat="48.93056" lon="2.04086">
        <ele>28</ele>
        <time>2022-10-22T18:13:04Z</time>
      </trkpt>
      <trkpt lat="48.9306" lon="2.04077">
        <ele>28</ele>
        <time>2022-10-22T18:13:14Z</time>
      </trkpt>
      <trkpt lat="48.93066" lon="2.04047">
        <ele>28</ele>
        <time>2022-10-22T18:13:41Z</time>
      </trkpt>
      <trkpt lat="48.93074" lon="2.04028">
        <ele>29</ele>
        <time>2022-10-22T18:14:01Z</time>
      </trkpt>
      <trkpt lat="48.93077" lon="2.0402">
        <ele>29</ele>
        <time>2022-10-22T18:14:09Z</time>
      </trkpt>
      <trkpt lat="48.93084" lon="2.04026">
        <ele>28</ele>
        <time>2022-10-22T18:14:20Z</time>
      </trkpt>
      <trkpt lat="48.93122" lon="2.04071">
        <ele>26</ele>
        <time>2022-10-22T18:15:24Z</time>
      </trkpt>
      <trkpt lat="48.93121" lon="2.04075">
        <ele>26</ele>
        <time>2022-10-22T18:15:28Z</time>
      </trkpt>
      <trkpt lat="48.93122" lon="2.04076">
        <ele>26</ele>
        <time>2022-10-22T18:15:29Z</time>
      </trkpt>
      <trkpt lat="48.93121" lon="2.04075">
        <ele>26</ele>
        <time>2022-10-22T18:15:31Z</time>
      </trkpt>
      <trkpt lat="48.93123" lon="2.04069">
        <ele>26</ele>
        <time>2022-10-22T18:15:37Z</time>
      </trkpt>
      <trkpt lat="48.93125" lon="2.0407">
        <ele>26</ele>
        <time>2022-10-22T18:15:40Z</time>
      </trkpt>
      <trkpt lat="48.93127" lon="2.04068">
        <ele>26</ele>
        <time>2022-10-22T18:15:43Z</time>
      </trkpt>
      <trkpt lat="48.93129" lon="2.0407">
        <ele>26</ele>
        <time>2022-10-22T18:15:46Z</time>
      </trkpt>
      <trkpt lat="48.93182" lon="2.04019">
        <ele>25</ele>
        <time>2022-10-22T18:17:10Z</time>
      </trkpt>
      <trkpt lat="48.93183" lon="2.0402">
        <ele>25</ele>
        <time>2022-10-22T18:17:11Z</time>
      </trkpt>
      <trkpt lat="48.93208" lon="2.04073">
        <ele>25</ele>
        <time>2022-10-22T18:18:09Z</time>
      </trkpt>
    </trkseg>
  </trk>
</gpx>